createdAt,value
2017-05-30T00:00:46.611Z,19.00
2017-05-30T00:03:13.805Z,19.00
2017-05-30T00:05:41.058Z,18.90
2017-05-30T00:08:08.230Z,18.90
2017-05-30T00:10:35.507Z,18.90
2017-05-30T00:13:02.698Z,18.90
2017-05-30T00:15:29.953Z,18.80
2017-05-30T00:17:57.106Z,18.80
2017-05-30T00:20:24.397Z,18.80
2017-05-30T00:22:51.569Z,18.80
2017-05-30T00:25:18.754Z,18.70
2017-05-30T00:27:46.016Z,18.70
2017-05-30T00:30:13.293Z,18.70
2017-05-30T00:32:40.526Z,18.70
2017-05-30T00:35:07.723Z,18.60
2017-05-30T00:37:35.013Z,18.60
2017-05-30T00:40:02.187Z,18.60
2017-05-30T00:42:29.669Z,18.60
2017-05-30T00:44:56.942Z,18.60
2017-05-30T00:47:24.125Z,18.60
2017-05-30T00:49:51.706Z,18.50
2017-05-30T00:52:18.874Z,18.50
2017-05-30T00:54:46.070Z,18.50
2017-05-30T00:57:13.255Z,18.50
2017-05-30T00:59:40.437Z,18.50
2017-05-30T01:02:07.756Z,18.40
2017-05-30T01:04:34.944Z,18.40
2017-05-30T01:07:02.713Z,18.40
2017-05-30T01:09:29.868Z,18.40
2017-05-30T01:11:57.067Z,18.30
2017-05-30T01:14:24.332Z,18.30
2017-05-30T01:16:51.608Z,18.30
2017-05-30T01:19:18.793Z,18.20
2017-05-30T01:21:46.051Z,18.20
2017-05-30T01:24:13.249Z,18.20
2017-05-30T01:26:40.426Z,18.20
2017-05-30T01:29:07.630Z,18.10
2017-05-30T01:31:34.943Z,18.10
2017-05-30T01:34:02.119Z,18.10
2017-05-30T01:36:29.320Z,18.10
2017-05-30T01:38:56.530Z,18.10
2017-05-30T01:41:23.790Z,18.00
2017-05-30T01:43:51.000Z,18.10
2017-05-30T01:46:18.267Z,18.00
2017-05-30T01:48:45.476Z,18.00
2017-05-30T01:51:12.642Z,18.00
2017-05-30T01:53:40.114Z,17.90
2017-05-30T01:56:07.300Z,17.90
2017-05-30T01:58:34.469Z,17.90
2017-05-30T02:01:01.698Z,17.90
2017-05-30T02:03:28.960Z,17.90
2017-05-30T02:05:56.125Z,17.80
2017-05-30T02:08:23.279Z,17.80
2017-05-30T02:10:50.443Z,17.80
2017-05-30T02:13:17.602Z,17.80
2017-05-30T02:15:44.782Z,17.80
2017-05-30T02:18:11.982Z,17.80
2017-05-30T02:20:39.162Z,17.80
2017-05-30T02:23:06.347Z,17.80
2017-05-30T02:25:33.519Z,17.80
2017-05-30T02:28:00.683Z,17.80
2017-05-30T02:30:27.871Z,17.80
2017-05-30T02:32:55.051Z,17.80
2017-05-30T02:35:22.790Z,17.80
2017-05-30T02:37:49.960Z,17.80
2017-05-30T02:40:17.194Z,17.80
2017-05-30T02:42:44.388Z,17.80
2017-05-30T02:45:11.853Z,17.80
2017-05-30T02:47:39.045Z,17.80
2017-05-30T02:50:06.291Z,17.80
2017-05-30T02:52:33.493Z,17.70
2017-05-30T02:55:00.738Z,17.70
2017-05-30T02:57:27.926Z,17.70
2017-05-30T02:59:55.127Z,17.70
2017-05-30T03:02:22.348Z,17.70
2017-05-30T03:04:49.502Z,17.70
2017-05-30T03:07:16.675Z,17.70
2017-05-30T03:09:43.982Z,17.70
2017-05-30T03:12:11.203Z,17.70
2017-05-30T03:14:38.687Z,17.70
2017-05-30T03:17:05.845Z,17.80
2017-05-30T03:19:33.020Z,17.80
2017-05-30T03:22:00.192Z,17.80
2017-05-30T03:24:27.349Z,17.90
2017-05-30T03:26:55.131Z,18.00
2017-05-30T03:29:22.789Z,18.00
2017-05-30T03:31:50.006Z,18.10
2017-05-30T03:34:17.904Z,18.20
2017-05-30T03:36:45.220Z,18.30
2017-05-30T03:39:12.375Z,18.40
2017-05-30T03:41:39.533Z,18.60
2017-05-30T03:44:06.996Z,18.60
2017-05-30T03:46:34.219Z,18.80
2017-05-30T03:49:01.742Z,18.80
2017-05-30T03:51:28.904Z,18.90
2017-05-30T03:53:56.098Z,19.00
2017-05-30T03:56:23.270Z,19.10
2017-05-30T03:58:50.476Z,19.20
2017-05-30T04:01:17.650Z,19.30
2017-05-30T04:03:44.932Z,19.40
2017-05-30T04:06:12.150Z,19.50
2017-05-30T04:08:39.377Z,19.60
2017-05-30T04:11:06.655Z,19.70
2017-05-30T04:13:33.840Z,19.80
2017-05-30T04:16:01.023Z,19.90
2017-05-30T04:18:29.064Z,20.00
2017-05-30T04:20:56.364Z,20.20
2017-05-30T04:23:23.562Z,20.50
2017-05-30T04:25:50.759Z,20.80
2017-05-30T04:28:18.089Z,21.00
2017-05-30T04:30:45.251Z,21.10
2017-05-30T04:33:12.457Z,21.20
2017-05-30T04:35:39.805Z,21.20
2017-05-30T04:38:06.993Z,21.30
2017-05-30T04:40:34.177Z,21.40
2017-05-30T04:43:01.361Z,21.50
2017-05-30T04:45:28.562Z,21.60
2017-05-30T04:47:55.738Z,21.70
2017-05-30T04:50:22.917Z,21.80
2017-05-30T04:52:50.107Z,21.90
2017-05-30T04:55:17.250Z,22.00
2017-05-30T04:57:44.439Z,22.20
2017-05-30T05:00:11.611Z,22.50
2017-05-30T05:02:38.788Z,23.30
2017-05-30T05:05:06.328Z,24.20
2017-05-30T05:07:33.556Z,25.20
2017-05-30T05:10:00.826Z,25.80
2017-05-30T05:12:28.174Z,26.10
2017-05-30T05:14:55.414Z,26.40
2017-05-30T05:17:22.624Z,27.00
2017-05-30T05:19:49.825Z,27.90
2017-05-30T05:22:17.213Z,29.00
2017-05-30T05:24:44.557Z,30.00
2017-05-30T05:27:12.866Z,31.10
2017-05-30T05:29:40.982Z,32.10
2017-05-30T05:32:08.178Z,33.10
2017-05-30T05:34:35.350Z,33.70
2017-05-30T05:37:02.563Z,33.80
2017-05-30T05:39:29.941Z,33.60
2017-05-30T05:41:57.131Z,33.20
2017-05-30T05:44:24.343Z,32.90
2017-05-30T05:46:51.523Z,32.50
2017-05-30T05:49:18.686Z,32.00
2017-05-30T05:51:45.880Z,31.50
2017-05-30T05:54:13.120Z,31.00
2017-05-30T05:56:40.908Z,30.60
2017-05-30T05:59:08.081Z,30.20
2017-05-30T06:01:35.281Z,30.00
2017-05-30T06:04:02.491Z,29.90
2017-05-30T06:06:29.774Z,29.80
2017-05-30T06:08:58.783Z,29.70
2017-05-30T06:11:26.202Z,29.60
2017-05-30T06:13:53.620Z,29.50
2017-05-30T06:16:21.138Z,29.30
2017-05-30T06:18:48.736Z,29.10
2017-05-30T06:21:17.175Z,28.90
2017-05-30T06:23:46.393Z,28.80
2017-05-30T06:26:14.309Z,28.70
2017-05-30T06:28:43.644Z,28.60
2017-05-30T06:31:10.920Z,28.60
2017-05-30T06:33:38.759Z,28.60
2017-05-30T06:36:06.371Z,28.50
2017-05-30T06:38:33.864Z,28.20
2017-05-30T06:41:01.537Z,27.90
2017-05-30T06:43:29.010Z,27.60
2017-05-30T06:45:56.797Z,27.20
2017-05-30T06:48:25.137Z,26.90
2017-05-30T06:50:52.366Z,26.60
2017-05-30T06:53:19.847Z,26.30
2017-05-30T06:55:47.094Z,26.00
2017-05-30T06:58:14.396Z,25.80
2017-05-30T07:00:41.614Z,25.50
2017-05-30T07:03:08.818Z,25.30
2017-05-30T07:05:36.355Z,25.30
2017-05-30T07:08:03.593Z,25.20
2017-05-30T07:10:31.110Z,25.20
2017-05-30T07:12:58.583Z,25.30
2017-05-30T07:15:25.791Z,25.50
2017-05-30T07:17:53.188Z,26.10
2017-05-30T07:20:20.504Z,27.50
2017-05-30T07:22:48.192Z,29.20
2017-05-30T07:25:16.373Z,31.00
2017-05-30T07:27:43.871Z,32.80
2017-05-30T07:30:11.881Z,34.50
2017-05-30T07:32:39.232Z,35.60
2017-05-30T07:35:06.403Z,36.40
2017-05-30T07:37:34.105Z,36.40
2017-05-30T07:40:01.653Z,35.60
2017-05-30T07:42:29.010Z,34.40
2017-05-30T07:44:56.574Z,33.40
2017-05-30T07:47:24.703Z,32.80
2017-05-30T07:49:52.912Z,32.80
2017-05-30T07:52:21.080Z,32.60
2017-05-30T07:54:48.453Z,32.30
2017-05-30T07:57:17.365Z,31.90
2017-05-30T07:59:44.848Z,31.40
2017-05-30T08:02:12.242Z,30.90
2017-05-30T08:04:39.542Z,30.60
2017-05-30T08:07:06.873Z,30.20
2017-05-30T08:09:34.472Z,30.00
2017-05-30T08:12:01.923Z,30.40
2017-05-30T08:14:29.308Z,30.40
2017-05-30T08:16:56.583Z,30.40
2017-05-30T08:19:23.851Z,30.70
2017-05-30T08:21:51.336Z,31.30
2017-05-30T08:24:18.712Z,32.10
2017-05-30T08:26:45.990Z,32.60
2017-05-30T08:29:13.213Z,33.00
2017-05-30T08:31:40.596Z,33.10
2017-05-30T08:34:07.765Z,33.30
2017-05-30T08:36:34.952Z,33.40
2017-05-30T08:39:02.883Z,33.50
2017-05-30T08:41:30.146Z,33.50
2017-05-30T08:43:57.427Z,33.60
2017-05-30T08:46:24.816Z,33.50
2017-05-30T08:48:52.000Z,33.30
2017-05-30T08:51:19.186Z,33.10
2017-05-30T08:53:46.415Z,32.80
2017-05-30T08:56:13.942Z,32.60
2017-05-30T08:58:41.099Z,32.40
2017-05-30T09:03:24.104Z,32.10
2017-05-30T09:05:51.280Z,32.00
2017-05-30T09:08:18.425Z,31.90
2017-05-30T09:10:45.988Z,31.90
2017-05-30T09:13:13.153Z,31.90
2017-05-30T09:15:40.332Z,31.90
2017-05-30T09:18:07.624Z,31.90
2017-05-30T09:20:34.853Z,32.00
2017-05-30T09:23:02.052Z,31.90
2017-05-30T09:25:29.262Z,32.00
2017-05-30T09:27:56.434Z,32.20
2017-05-30T09:30:23.972Z,32.20
2017-05-30T09:32:51.171Z,32.20
2017-05-30T09:35:18.318Z,32.20
2017-05-30T09:37:45.523Z,32.10
2017-05-30T09:40:12.743Z,31.90
2017-05-30T09:42:39.897Z,31.80
2017-05-30T09:45:07.413Z,31.60
2017-05-30T09:47:34.575Z,31.60
2017-05-30T09:50:01.812Z,31.50
2017-05-30T09:52:29.010Z,31.30
2017-05-30T09:54:56.176Z,31.20
2017-05-30T09:57:23.375Z,31.00
2017-05-30T09:59:50.552Z,30.70
2017-05-30T10:02:17.764Z,30.50
2017-05-30T10:04:44.981Z,30.30
2017-05-30T10:07:12.165Z,30.20
2017-05-30T10:09:39.350Z,30.10
2017-05-30T10:12:06.526Z,29.80
2017-05-30T10:14:33.786Z,29.50
2017-05-30T10:17:00.978Z,29.20
2017-05-30T10:19:28.272Z,29.10
2017-05-30T10:21:55.431Z,29.00
2017-05-30T10:24:22.659Z,28.80
2017-05-30T10:26:49.835Z,28.60
2017-05-30T10:29:16.999Z,28.40
2017-05-30T10:31:44.216Z,28.30
2017-05-30T10:34:11.427Z,28.20
2017-05-30T10:36:38.629Z,28.10
2017-05-30T10:39:05.813Z,28.00
2017-05-30T10:41:33.472Z,27.90
2017-05-30T10:44:00.657Z,27.80
2017-05-30T10:46:28.164Z,27.60
2017-05-30T10:48:55.353Z,27.50
2017-05-30T10:51:25.838Z,27.40
2017-05-30T10:53:52.998Z,27.30
2017-05-30T10:56:20.174Z,27.20
2017-05-30T10:58:47.398Z,27.20
2017-05-30T11:01:14.578Z,27.30
2017-05-30T11:03:41.756Z,27.30
2017-05-30T11:06:08.951Z,27.40
2017-05-30T11:08:37.094Z,27.60
2017-05-30T11:11:04.294Z,27.70
2017-05-30T11:13:31.542Z,27.70
2017-05-30T11:15:58.880Z,27.80
2017-05-30T11:18:26.072Z,27.90
2017-05-30T11:20:53.690Z,28.00
2017-05-30T11:23:20.924Z,28.00
2017-05-30T11:25:48.217Z,28.00
2017-05-30T11:28:15.419Z,28.10
2017-05-30T11:30:42.589Z,28.10
2017-05-30T11:33:09.789Z,28.10
2017-05-30T11:35:37.094Z,28.10
2017-05-30T11:38:04.387Z,28.10
2017-05-30T11:40:31.723Z,28.20
2017-05-30T11:42:59.342Z,28.40
2017-05-30T11:45:27.231Z,28.60
2017-05-30T11:47:54.493Z,28.60
2017-05-30T11:50:23.029Z,28.70
2017-05-30T11:52:50.236Z,28.80
2017-05-30T11:55:17.560Z,28.90
2017-05-30T11:57:44.932Z,29.10
2017-05-30T12:00:12.820Z,29.30
2017-05-30T12:02:40.096Z,29.60
2017-05-30T12:05:07.574Z,29.80
2017-05-30T12:07:34.772Z,30.00
2017-05-30T12:10:02.123Z,30.10
2017-05-30T12:12:29.499Z,30.30
2017-05-30T12:14:57.897Z,30.30
2017-05-30T12:17:41.331Z,30.30
2017-05-30T12:20:08.608Z,30.30
2017-05-30T12:22:35.982Z,30.20
2017-05-30T12:25:03.202Z,30.10
2017-05-30T12:27:30.397Z,30.10
2017-05-30T12:29:57.617Z,30.20
2017-05-30T12:32:24.819Z,30.30
2017-05-30T12:34:52.050Z,30.40
2017-05-30T12:37:19.254Z,30.40
2017-05-30T12:39:46.595Z,30.30
2017-05-30T12:42:13.790Z,30.20
2017-05-30T12:44:41.452Z,30.00
2017-05-30T12:47:24.069Z,29.90
2017-05-30T12:49:51.483Z,29.90
2017-05-30T12:52:18.823Z,29.90
2017-05-30T12:54:46.011Z,29.90
2017-05-30T12:57:13.229Z,30.00
2017-05-30T12:59:40.423Z,30.20
2017-05-30T13:02:07.682Z,30.50
2017-05-30T13:04:34.990Z,30.80
2017-05-30T13:07:02.223Z,31.00
2017-05-30T13:09:29.537Z,31.10
2017-05-30T13:11:56.821Z,31.20
2017-05-30T13:14:24.061Z,31.10
2017-05-30T13:16:51.301Z,31.00
2017-05-30T13:19:18.486Z,31.10
2017-05-30T13:21:45.686Z,31.10
2017-05-30T13:24:12.858Z,31.10
2017-05-30T13:26:40.026Z,31.20
2017-05-30T13:29:07.222Z,31.10
2017-05-30T13:31:34.430Z,31.00
2017-05-30T13:34:01.642Z,31.00
2017-05-30T13:36:28.814Z,30.90
2017-05-30T13:38:56.013Z,30.80
2017-05-30T13:41:23.287Z,30.80
2017-05-30T13:43:50.501Z,30.70
2017-05-30T13:46:17.680Z,30.70
2017-05-30T13:48:44.870Z,30.80
2017-05-30T13:51:12.080Z,30.80
2017-05-30T13:53:39.286Z,30.80
2017-05-30T13:56:07.406Z,30.70
2017-05-30T13:58:34.591Z,30.60
2017-05-30T14:01:01.779Z,30.50
2017-05-30T14:03:29.062Z,30.30
2017-05-30T14:05:56.273Z,30.00
2017-05-30T14:08:23.466Z,29.70
2017-05-30T14:10:50.646Z,29.40
2017-05-30T14:13:17.806Z,29.30
2017-05-30T14:15:45.113Z,29.20
2017-05-30T14:18:12.380Z,29.20
2017-05-30T14:20:39.551Z,29.20
2017-05-30T14:23:06.738Z,29.10
2017-05-30T14:25:34.429Z,29.10
2017-05-30T14:28:01.592Z,29.00
2017-05-30T14:30:28.770Z,29.10
2017-05-30T14:32:55.987Z,29.10
2017-05-30T14:35:23.224Z,29.10
2017-05-30T14:37:50.398Z,29.20
2017-05-30T14:40:17.609Z,29.20
2017-05-30T14:42:44.775Z,29.20
2017-05-30T14:45:12.010Z,29.20
2017-05-30T14:47:39.180Z,29.30
2017-05-30T14:50:09.933Z,29.30
2017-05-30T14:52:37.108Z,29.30
2017-05-30T14:55:04.434Z,29.30
2017-05-30T14:57:31.761Z,29.20
2017-05-30T14:59:59.236Z,29.10
2017-05-30T15:02:26.612Z,29.00
2017-05-30T15:04:53.884Z,28.80
2017-05-30T15:07:21.128Z,28.50
2017-05-30T15:09:48.740Z,28.30
2017-05-30T15:12:15.934Z,28.10
2017-05-30T15:14:43.290Z,27.80
2017-05-30T15:17:10.503Z,27.70
2017-05-30T15:19:39.852Z,27.60
2017-05-30T15:22:07.062Z,27.50
2017-05-30T15:24:34.329Z,27.40
2017-05-30T15:27:02.219Z,27.40
2017-05-30T15:29:29.417Z,27.30
2017-05-30T15:31:56.616Z,27.30
2017-05-30T15:34:23.806Z,27.30
2017-05-30T15:36:51.038Z,27.30
2017-05-30T15:39:18.198Z,27.30
2017-05-30T15:41:45.408Z,27.40
2017-05-30T15:44:12.581Z,27.40
2017-05-30T15:46:41.548Z,27.50
2017-05-30T15:49:09.027Z,27.50
2017-05-30T15:51:36.219Z,27.50
2017-05-30T15:54:03.417Z,27.50
2017-05-30T15:56:30.737Z,27.60
2017-05-30T15:58:58.010Z,27.70
2017-05-30T16:01:25.287Z,27.70
2017-05-30T16:03:53.021Z,27.70
2017-05-30T16:06:20.243Z,27.60
2017-05-30T16:08:47.590Z,27.50
2017-05-30T16:11:14.785Z,27.40
2017-05-30T16:13:41.962Z,27.30
2017-05-30T16:16:09.240Z,27.20
2017-05-30T16:18:36.514Z,27.10
2017-05-30T16:21:03.768Z,27.00
2017-05-30T16:23:31.061Z,26.90
2017-05-30T16:25:58.232Z,26.80
2017-05-30T16:28:25.390Z,26.70
2017-05-30T16:30:52.637Z,26.70
2017-05-30T16:33:19.832Z,26.60
2017-05-30T16:35:47.034Z,26.50
2017-05-30T16:38:14.211Z,26.50
2017-05-30T16:40:41.475Z,26.40
2017-05-30T16:43:08.654Z,26.40
2017-05-30T16:45:35.833Z,26.40
2017-05-30T16:48:03.048Z,26.30
2017-05-30T16:50:30.204Z,26.30
2017-05-30T16:52:57.535Z,26.00
2017-05-30T16:55:24.745Z,25.60
2017-05-30T16:57:52.482Z,25.20
2017-05-30T17:00:19.680Z,24.80
2017-05-30T17:02:47.042Z,24.40
2017-05-30T17:05:14.232Z,24.10
2017-05-30T17:07:41.593Z,23.70
2017-05-30T17:10:08.831Z,23.40
2017-05-30T17:12:36.039Z,23.10
2017-05-30T17:15:03.281Z,22.80
2017-05-30T17:17:30.484Z,22.50
2017-05-30T17:19:57.741Z,22.30
2017-05-30T17:22:24.985Z,22.10
2017-05-30T17:24:53.132Z,21.90
2017-05-30T17:27:20.399Z,21.70
2017-05-30T17:29:48.798Z,21.60
2017-05-30T17:32:16.008Z,21.50
2017-05-30T17:34:43.225Z,21.30
2017-05-30T17:37:10.471Z,21.20
2017-05-30T17:39:37.693Z,21.20
2017-05-30T17:42:05.172Z,21.10
2017-05-30T17:44:32.410Z,21.00
2017-05-30T17:46:59.610Z,21.00
2017-05-30T17:49:26.994Z,20.90
2017-05-30T17:51:54.881Z,20.90
2017-05-30T17:54:22.265Z,20.80
2017-05-30T17:56:49.425Z,20.70
2017-05-30T17:59:17.089Z,20.70
2017-05-30T18:01:44.388Z,20.60
2017-05-30T18:04:11.636Z,20.50
2017-05-30T18:06:38.940Z,20.50
2017-05-30T18:09:06.213Z,20.50
2017-05-30T18:11:33.409Z,20.40
2017-05-30T18:14:00.625Z,20.40
2017-05-30T18:16:28.412Z,20.30
2017-05-30T18:21:32.487Z,20.20
2017-05-30T18:23:59.688Z,20.10
2017-05-30T18:26:26.950Z,20.10
2017-05-30T18:28:54.400Z,20.10
2017-05-30T18:31:22.308Z,20.00
2017-05-30T18:33:49.543Z,20.00
2017-05-30T18:36:16.713Z,20.00
2017-05-30T18:38:43.961Z,19.90
2017-05-30T18:41:11.316Z,19.70
2017-05-30T18:43:38.688Z,19.70
2017-05-30T18:46:06.474Z,19.60
2017-05-30T18:48:33.681Z,19.50
2017-05-30T18:51:00.875Z,19.50
2017-05-30T18:53:28.128Z,19.40
2017-05-30T18:55:55.474Z,19.30
2017-05-30T18:58:22.658Z,19.20
2017-05-30T19:00:49.979Z,19.10
2017-05-30T19:03:17.294Z,19.10
2017-05-30T19:05:44.565Z,19.00
2017-05-30T19:08:11.839Z,18.90
2017-05-30T19:10:39.111Z,18.90
2017-05-30T19:13:06.324Z,18.80
2017-05-30T19:15:33.560Z,18.70
2017-05-30T19:18:00.740Z,18.60
2017-05-30T19:20:27.946Z,18.50
2017-05-30T19:22:55.121Z,18.50
2017-05-30T19:25:22.309Z,18.40
2017-05-30T19:27:49.510Z,18.30
2017-05-30T19:30:16.729Z,18.30
2017-05-30T19:32:44.222Z,18.20
2017-05-30T19:35:13.698Z,18.20
2017-05-30T19:37:41.692Z,18.10
2017-05-30T19:40:08.990Z,18.00
2017-05-30T19:42:36.952Z,18.00
2017-05-30T19:45:04.144Z,17.90
2017-05-30T19:47:31.506Z,17.90
2017-05-30T19:49:58.733Z,17.90
2017-05-30T19:52:25.989Z,17.80
2017-05-30T19:54:53.326Z,17.80
2017-05-30T19:57:20.700Z,17.80
2017-05-30T19:59:48.425Z,17.80
2017-05-30T20:02:17.016Z,17.80
2017-05-30T20:04:45.734Z,17.70
2017-05-30T20:07:12.920Z,17.70
2017-05-30T20:09:40.332Z,17.70
2017-05-30T20:12:07.552Z,17.70
2017-05-30T20:14:34.764Z,17.60
2017-05-30T20:17:02.066Z,17.60
2017-05-30T20:19:29.342Z,17.50
2017-05-30T20:21:56.556Z,17.50
2017-05-30T20:24:23.990Z,17.50
2017-05-30T20:26:51.210Z,17.40
2017-05-30T20:29:18.541Z,17.40
2017-05-30T20:31:45.775Z,17.40
2017-05-30T20:34:13.191Z,17.40
2017-05-30T20:36:40.378Z,17.30
2017-05-30T20:39:07.642Z,17.30
2017-05-30T20:41:34.834Z,17.20
2017-05-30T20:44:02.023Z,17.20
2017-05-30T20:46:29.214Z,17.20
2017-05-30T20:48:56.530Z,17.10
2017-05-30T20:51:23.697Z,17.20
2017-05-30T20:53:50.927Z,17.10
2017-05-30T20:56:18.463Z,17.20
2017-05-30T20:58:45.671Z,17.20
2017-05-30T21:01:12.837Z,17.20
2017-05-30T21:03:40.356Z,17.20
2017-05-30T21:06:07.654Z,17.20
2017-05-30T21:08:34.930Z,17.10
2017-05-30T21:11:02.474Z,17.10
2017-05-30T21:13:30.272Z,17.10
2017-05-30T21:15:57.573Z,17.10
2017-05-30T21:18:24.741Z,17.10
2017-05-30T21:20:51.919Z,17.10
2017-05-30T21:23:19.092Z,17.00
2017-05-30T21:25:46.320Z,17.00
2017-05-30T21:28:13.742Z,17.10
2017-05-30T21:30:41.075Z,17.10
2017-05-30T21:33:08.301Z,17.10
2017-05-30T21:35:35.477Z,17.10
2017-05-30T21:38:02.649Z,17.00
2017-05-30T21:40:29.857Z,17.00
2017-05-30T21:42:57.078Z,16.90
2017-05-30T21:45:24.278Z,16.90
2017-05-30T21:47:51.442Z,16.90
2017-05-30T21:50:18.602Z,16.80
2017-05-30T21:52:45.778Z,16.80
2017-05-30T21:55:13.350Z,16.80
2017-05-30T21:57:40.825Z,16.80
2017-05-30T22:00:08.105Z,16.80
2017-05-30T22:02:35.563Z,16.70
2017-05-30T22:05:02.036Z,16.70
2017-05-30T22:07:29.289Z,16.70
2017-05-30T22:09:56.468Z,16.60
2017-05-30T22:12:23.652Z,16.60
2017-05-30T22:14:50.873Z,16.60
2017-05-30T22:17:18.077Z,16.60
2017-05-30T22:19:45.221Z,16.60
2017-05-30T22:22:12.417Z,16.50
2017-05-30T22:24:39.730Z,16.50
2017-05-30T22:27:06.992Z,16.50
2017-05-30T22:29:34.208Z,16.50
2017-05-30T22:32:01.484Z,16.40
2017-05-30T22:34:28.656Z,16.40
2017-05-30T22:36:55.836Z,16.40
2017-05-30T22:39:23.394Z,16.40
2017-05-30T22:41:50.537Z,16.40
2017-05-30T22:44:17.811Z,16.40
2017-05-30T22:46:45.079Z,16.40
2017-05-30T22:51:46.214Z,16.30
2017-05-30T22:54:13.362Z,16.30
2017-05-30T22:56:40.524Z,16.30
2017-05-30T22:59:08.115Z,16.30
2017-05-30T23:01:35.263Z,16.30
2017-05-30T23:04:02.411Z,16.30
2017-05-30T23:06:29.579Z,16.30
2017-05-30T23:08:56.794Z,16.30
2017-05-30T23:11:23.952Z,16.30
2017-05-30T23:13:51.112Z,16.20
2017-05-30T23:16:18.288Z,16.20
2017-05-30T23:18:45.507Z,16.20
2017-05-30T23:21:13.225Z,16.20
2017-05-30T23:23:40.613Z,16.20
2017-05-30T23:26:07.801Z,16.20
2017-05-30T23:28:35.437Z,16.10
2017-05-30T23:31:03.189Z,16.10
2017-05-30T23:33:30.362Z,16.10
2017-05-30T23:35:57.568Z,16.10
2017-05-30T23:38:24.747Z,16.10
2017-05-30T23:40:51.950Z,16.10
2017-05-30T23:43:19.303Z,16.10
2017-05-30T23:45:46.476Z,16.10
2017-05-30T23:48:13.655Z,16.00
2017-05-30T23:50:40.823Z,16.00
2017-05-30T23:53:08.015Z,16.00
2017-05-30T23:55:35.212Z,16.00
2017-05-30T23:58:02.572Z,16.00
